createdAt,value
2022-09-20T00:03:08.206Z,3.5
2022-09-20T00:08:51.672Z,1.8
2022-09-20T00:14:34.997Z,2.1
2022-09-20T00:20:18.428Z,3.6
2022-09-20T00:26:03.523Z,2
2022-09-20T00:31:46.949Z,3.1
2022-09-20T00:37:30.142Z,2.8
2022-09-20T00:43:15.878Z,2.1
2022-09-20T00:49:01.835Z,1.5
2022-09-20T00:54:45.372Z,1.9
2022-09-20T01:00:29.566Z,3.2
2022-09-20T01:06:15.471Z,3
2022-09-20T01:11:59.731Z,2.8
2022-09-20T01:17:45.186Z,2.1
2022-09-20T01:23:33.807Z,1.1
2022-09-20T01:29:24.182Z,1.9
2022-09-20T01:35:09.267Z,3.1
2022-09-20T01:40:57.751Z,1.3
2022-09-20T01:46:43.799Z,2
2022-09-20T01:52:53.431Z,2.1
2022-09-20T01:59:22.376Z,1.2
2022-09-20T02:05:00.935Z,1.2
2022-09-20T02:10:58.994Z,1.6
2022-09-20T02:16:53.083Z,2.3
2022-09-20T02:22:42.896Z,1.2
2022-09-20T02:28:32.825Z,3.4
2022-09-20T02:34:39.793Z,3.4
2022-09-20T02:40:29.494Z,2.6
2022-09-20T02:46:16.482Z,2.2
2022-09-20T02:52:02.814Z,2.2
2022-09-20T02:57:52.789Z,2.1
2022-09-20T03:03:40.638Z,4.1
2022-09-20T03:09:28.176Z,1.9
2022-09-20T03:15:18.506Z,2.6
2022-09-20T03:21:07.023Z,3.2
2022-09-20T03:26:55.130Z,3.9
2022-09-20T03:32:47.981Z,3.9
2022-09-20T03:38:39.829Z,6.1
2022-09-20T03:44:36.562Z,3.5
2022-09-20T03:50:33.786Z,4.4
2022-09-20T03:56:37.139Z,3.9
2022-09-20T04:02:32.377Z,4
2022-09-20T04:08:20.333Z,3
2022-09-20T04:14:14.608Z,4.1
2022-09-20T04:20:02.184Z,3.3
2022-09-20T04:25:49.013Z,4.8
2022-09-20T04:31:39.060Z,4.2
2022-09-20T04:37:27.180Z,3.6
2022-09-20T04:43:19.561Z,3.1
2022-09-20T04:49:27.994Z,5.3
2022-09-20T04:55:22.481Z,5.4
2022-09-20T05:01:18.038Z,5.2
2022-09-20T05:07:12.533Z,4.3
2022-09-20T05:13:07.340Z,5.9
2022-09-20T05:19:04.771Z,4.3
2022-09-20T05:24:56.103Z,4.2
2022-09-20T05:30:43.599Z,5.6
2022-09-20T05:36:36.803Z,5.2
2022-09-20T05:42:23.455Z,5.8
2022-09-20T05:48:11.714Z,6.5
2022-09-20T05:54:02.896Z,5.6
2022-09-20T05:59:53.174Z,6.7
2022-09-20T06:05:43.929Z,6.9
2022-09-20T06:11:34.651Z,5.8
2022-09-20T06:17:24.933Z,7.5
2022-09-20T06:23:08.413Z,10.3
2022-09-20T06:29:00.126Z,6.6
2022-09-20T06:34:43.450Z,7.1
2022-09-20T06:40:33.930Z,6.3
2022-09-20T06:46:17.264Z,6.1
2022-09-20T06:52:00.299Z,7.1
2022-09-20T06:57:43.526Z,7.4
2022-09-20T07:03:26.853Z,7.3
2022-09-20T07:09:10.131Z,7.3
2022-09-20T07:14:53.530Z,12.7
2022-09-20T07:20:36.920Z,10.2
2022-09-20T07:26:23.377Z,6.5
2022-09-20T07:32:06.928Z,6.4
2022-09-20T07:37:50.289Z,7.7
2022-09-20T07:43:33.947Z,6.5
2022-09-20T07:49:18.224Z,6.6
2022-09-20T07:55:01.585Z,6.9
2022-09-20T08:00:44.974Z,6.8
2022-09-20T08:06:28.086Z,6
2022-09-20T08:18:15.830Z,6.8
2022-09-20T08:23:59.530Z,6.3
2022-09-20T08:29:42.654Z,3.8
2022-09-20T08:35:25.982Z,6.8
2022-09-20T08:41:13.278Z,4.5
2022-09-20T08:47:01.386Z,8
2022-09-20T08:52:47.404Z,4.4
2022-09-20T08:58:30.904Z,4.2
2022-09-20T09:04:17.831Z,5.6
2022-09-20T09:10:01.036Z,5.4
2022-09-20T09:15:45.974Z,4.5
2022-09-20T09:21:30.870Z,4.1
2022-09-20T09:27:16.837Z,4.4
2022-09-20T09:33:05.666Z,3.2
2022-09-20T09:38:48.936Z,3.6
2022-09-20T09:44:32.730Z,3.1
2022-09-20T09:50:20.907Z,2.6
2022-09-20T09:56:17.059Z,3.9
2022-09-20T10:02:04.755Z,3.4
2022-09-20T10:07:51.652Z,2.5
2022-09-20T10:13:43.177Z,1.8
2022-09-20T10:19:31.434Z,3.2
2022-09-20T10:25:20.313Z,2.6
2022-09-20T10:31:09.675Z,3
2022-09-20T10:36:55.554Z,2.2
2022-09-20T10:42:43.362Z,3.6
2022-09-20T10:48:31.239Z,1.8
2022-09-20T10:54:18.722Z,3.3
2022-09-20T11:00:07.713Z,3.8
2022-09-20T11:05:57.795Z,2.9
2022-09-20T11:11:44.124Z,3.6
2022-09-20T11:17:30.101Z,5.1
2022-09-20T11:23:17.266Z,2.3
2022-09-20T11:29:04.349Z,4.3
2022-09-20T11:34:52.125Z,2.2
2022-09-20T11:40:37.764Z,3.1
2022-09-20T11:46:24.648Z,3.4
2022-09-20T11:52:34.738Z,3.1
2022-09-20T11:58:18.847Z,2.7
2022-09-20T12:04:35.558Z,2.2
2022-09-20T12:10:09.467Z,2.7
2022-09-20T12:15:57.924Z,2.8
2022-09-20T12:21:52.495Z,2.7
2022-09-20T12:27:46.510Z,3.4
2022-09-20T12:33:34.755Z,3.6
2022-09-20T12:39:32.097Z,2.2
2022-09-20T12:45:20.385Z,3.9
2022-09-20T12:51:12.646Z,3.3
2022-09-20T12:56:57.036Z,4.1
2022-09-20T13:02:51.738Z,2.2
2022-09-20T13:08:37.489Z,2.7
2022-09-20T13:14:22.825Z,2.4
2022-09-20T13:20:06.363Z,2.4
2022-09-20T13:25:50.911Z,2.8
2022-09-20T13:31:35.871Z,3
2022-09-20T13:37:21.539Z,3.5
2022-09-20T13:43:23.880Z,1.4
2022-09-20T13:49:17.081Z,2.5
2022-09-20T13:55:00.402Z,3.4
2022-09-20T14:00:47.912Z,2
2022-09-20T14:06:31.602Z,4
2022-09-20T14:12:15.159Z,2.9
2022-09-20T14:17:58.849Z,3.1
2022-09-20T14:23:53.892Z,2.8
2022-09-20T14:29:42.903Z,3
2022-09-20T14:35:27.225Z,2.3
2022-09-20T14:41:10.566Z,3
2022-09-20T14:46:54.618Z,2.6
2022-09-20T14:52:39.349Z,2.4
2022-09-20T14:58:22.758Z,2.2
2022-09-20T15:04:08.778Z,3.8
2022-09-20T15:09:52.033Z,2.8
2022-09-20T15:15:35.782Z,2.3
2022-09-20T15:21:19.833Z,2.3
2022-09-20T15:27:03.147Z,2.5
2022-09-20T15:32:47.202Z,1.5
2022-09-20T15:38:30.598Z,2.6
2022-09-20T15:44:13.842Z,2.8
2022-09-20T15:49:57.118Z,1.6
2022-09-20T15:55:42.522Z,2.1
2022-09-20T16:01:26.017Z,2.6
2022-09-20T16:07:09.710Z,4.1
2022-09-20T16:12:52.725Z,4.3
2022-09-20T16:18:37.878Z,4.9
2022-09-20T16:24:21.233Z,4.5
2022-09-20T16:30:05.591Z,4.1
2022-09-20T16:35:48.941Z,3.9
2022-09-20T16:41:32.287Z,10.5
2022-09-20T16:47:16.994Z,9.2
2022-09-20T16:53:01.338Z,10.7
2022-09-20T16:58:45.495Z,10.7
2022-09-20T17:04:29.049Z,8.6
2022-09-20T17:10:12.777Z,9
2022-09-20T17:16:01.222Z,7.8
2022-09-20T17:21:45.765Z,9.6
2022-09-20T17:27:30.486Z,9
2022-09-20T17:33:14.614Z,6.9
2022-09-20T17:39:06.463Z,8
2022-09-20T17:44:49.834Z,8.2
2022-09-20T17:50:33.054Z,8.6
2022-09-20T17:56:16.591Z,6.9
2022-09-20T18:01:59.781Z,7.3
2022-09-20T18:07:42.994Z,5.8
2022-09-20T18:13:26.716Z,7.4
2022-09-20T18:19:11.319Z,7.6
2022-09-20T18:24:54.492Z,6.5
2022-09-20T18:30:40.801Z,7.3
2022-09-20T18:36:24.049Z,6.4
2022-09-20T18:42:09.398Z,8.6
2022-09-20T18:47:52.574Z,5.2
2022-09-20T18:53:38.874Z,5.1
2022-09-20T18:59:23.835Z,4.1
2022-09-20T19:05:13.815Z,6.6
2022-09-20T19:11:02.363Z,3.7
2022-09-20T19:16:49.291Z,5.2
2022-09-20T19:22:37.089Z,4.8
2022-09-20T19:28:24.455Z,5
2022-09-20T19:34:14.414Z,3.6
2022-09-20T19:40:06.803Z,4.4
2022-09-20T19:45:53.505Z,3.3
2022-09-20T19:51:39.201Z,5.7
2022-09-20T19:57:26.157Z,4
2022-09-20T20:03:10.936Z,3.1
2022-09-20T20:08:58.282Z,5.4
2022-09-20T20:14:48.384Z,5.8
2022-09-20T20:20:38.651Z,3.2
2022-09-20T20:26:24.187Z,4.7
2022-09-20T20:32:07.537Z,3.2
2022-09-20T20:37:50.775Z,5.1
2022-09-20T20:43:35.708Z,4.5
2022-09-20T20:49:18.978Z,4.4
2022-09-20T20:55:02.131Z,5.7
2022-09-20T21:00:46.334Z,4.1
2022-09-20T21:06:30.616Z,4.7
2022-09-20T21:12:13.846Z,2.8
2022-09-20T21:17:57.296Z,3.7
2022-09-20T21:23:40.333Z,4.5
2022-09-20T21:29:23.501Z,4.7
2022-09-20T21:35:06.893Z,5.9
2022-09-20T21:40:50.076Z,3.1
2022-09-20T21:46:34.286Z,4.3
2022-09-20T21:52:17.490Z,3.7
2022-09-20T21:58:00.818Z,6.3
2022-09-20T22:03:44.860Z,5.9
2022-09-20T22:09:28.163Z,3.6
2022-09-20T22:15:12.022Z,5.3
2022-09-20T22:21:00.085Z,6.9
2022-09-20T22:26:44.373Z,4
2022-09-20T22:32:27.606Z,5.4
2022-09-20T22:38:10.875Z,5.5
2022-09-20T22:43:54.209Z,6.9
2022-09-20T22:49:37.453Z,4.8
2022-09-20T22:55:20.770Z,4.5
2022-09-20T23:01:09.864Z,4
2022-09-20T23:06:54.601Z,4.8
2022-09-20T23:12:37.731Z,4.7
2022-09-20T23:18:21.063Z,3.7
2022-09-20T23:24:05.026Z,5.8
2022-09-20T23:29:48.521Z,4.5
2022-09-20T23:35:31.730Z,4.4
2022-09-20T23:41:15.786Z,4.2
2022-09-20T23:46:59.067Z,4.9
2022-09-20T23:52:42.257Z,5.3
2022-09-20T23:58:25.400Z,7.5
